Time;durP1;ratioP1;P1;durP2;ratioP2;P2;SDS_P1;SDS_P2;PMS_P1;PMS_P2;Temp;Humidity;BMP_temperature;BMP_pressure;BME280_temperature;BME280_humidity;BME280_pressure;Samples;Min_cycle;Max_cycle;Signal;HPM_P1;HPM_P2
2022/07/02 00:00:25;;;;;;;;;1.67;1.67;;;;;27.44;49.45;98792.47;4936710;28;103814;-62
2022/07/02 00:02:53;;;;;;;;;1.00;1.00;;;;;27.42;49.33;98784.44;4880740;28;102382;-62
2022/07/02 00:05:22;;;;;;;;;2.00;1.00;;;;;27.42;49.42;98783.63;4924469;28;102057;-62
2022/07/02 00:07:50;;;;;;;;;1.67;1.67;;;;;27.41;49.09;98780.03;4915277;28;102156;-62
2022/07/02 00:10:18;;;;;;;;;2.00;2.00;;;;;27.39;49.28;98768.38;4911263;28;104254;-62
2022/07/02 00:12:45;;;;;;;;;1.33;1.00;;;;;27.38;49.45;98755.63;4913393;28;102464;-62
2022/07/02 00:15:12;;;;;;;;;2.00;2.00;;;;;27.39;49.60;98750.91;4866591;28;102212;-62
2022/07/02 00:17:40;;;;;;;;;1.00;1.00;;;;;27.39;49.32;98745.34;4945373;28;102222;-62
2022/07/02 00:20:08;;;;;;;;;1.67;1.67;;;;;27.38;49.54;98754.78;4936072;28;104154;-62
2022/07/02 00:22:35;;;;;;;;;2.33;2.33;;;;;27.36;49.45;98765.41;4924536;28;102274;-62
2022/07/02 00:25:02;;;;;;;;;0.33;0.33;;;;;27.37;49.60;98779.00;4963502;28;102124;-62
2022/07/02 00:27:30;;;;;;;;;3.00;3.00;;;;;27.36;49.31;98785.66;4934950;28;104006;-62
2022/07/02 00:30:01;;;;;;;;;0.00;0.00;;;;;27.36;49.35;98791.22;4948853;28;104151;-62
2022/07/02 00:32:35;;;;;;;;;2.00;1.33;;;;;27.36;49.57;98787.63;4930320;28;101957;-62
2022/07/02 00:35:08;;;;;;;;;1.00;1.00;;;;;27.35;49.62;98792.34;4928037;28;102134;-62
2022/07/02 00:37:38;;;;;;;;;2.00;2.00;;;;;27.34;49.88;98790.69;4919354;28;102323;-62
2022/07/02 00:40:06;;;;;;;;;2.33;2.33;;;;;27.33;49.41;98797.38;4921256;28;104089;-62
2022/07/02 00:42:35;;;;;;;;;2.00;2.00;;;;;27.34;49.51;98803.75;4963253;28;102209;-62
2022/07/02 00:45:02;;;;;;;;;2.00;1.33;;;;;27.32;49.45;98817.97;4904153;28;102397;-62
2022/07/02 00:47:30;;;;;;;;;1.67;1.67;;;;;27.33;49.46;98835.44;4902929;28;102516;-62
2022/07/02 00:49:57;;;;;;;;;2.33;2.33;;;;;27.32;49.60;98840.19;4927467;28;104933;-62
2022/07/02 00:52:24;;;;;;;;;2.00;1.00;;;;;27.32;49.76;98829.06;4915965;28;102137;-62
2022/07/02 00:54:51;;;;;;;;;2.67;2.67;;;;;27.31;49.36;98832.97;4938821;28;102155;-62
2022/07/02 00:57:18;;;;;;;;;2.00;2.00;;;;;27.31;49.39;98832.97;4924475;28;102234;-62
2022/07/02 00:59:45;;;;;;;;;0.33;0.33;;;;;27.31;49.53;98829.38;4921793;28;104154;-62
2022/07/02 01:02:14;;;;;;;;;2.00;1.67;;;;;27.32;49.56;98833.81;4915190;28;103734;-62
2022/07/02 01:04:41;;;;;;;;;1.33;1.33;;;;;27.31;49.79;98826.59;4884132;28;104356;-62
2022/07/02 01:07:10;;;;;;;;;0.67;0.67;;;;;27.30;49.58;98836.88;4915569;28;102181;-62
2022/07/02 01:12:25;;;;;;;;;3.33;3.00;;;;;27.28;49.45;98844.69;4895142;28;102155;-61
2022/07/02 01:14:52;;;;;;;;;2.67;2.00;;;;;27.29;49.56;98824.09;4915126;28;102014;-61
2022/07/02 01:17:20;;;;;;;;;0.00;0.00;;;;;27.28;49.71;98825.25;4922521;28;103869;-62
2022/07/02 01:19:47;;;;;;;;;3.00;2.00;;;;;27.27;49.46;98820.00;4897583;28;104080;-62
2022/07/02 01:22:34;;;;;;;;;2.00;2.00;;;;;27.27;49.73;98823.59;4896764;28;102523;-62
2022/07/02 01:25:01;;;;;;;;;1.00;1.00;;;;;27.27;49.74;98826.38;4917877;28;102367;-62
2022/07/02 01:27:29;;;;;;;;;2.33;2.33;;;;;27.28;49.43;98827.22;4922117;28;102498;-62
2022/07/02 01:29:57;;;;;;;;;1.33;1.00;;;;;27.27;49.68;98831.94;4932350;28;104308;-62
2022/07/02 01:32:24;;;;;;;;;1.00;1.00;;;;;27.27;49.26;98847.78;4893498;28;103721;-62
2022/07/02 01:35:01;;;;;;;;;2.00;2.00;;;;;27.28;49.35;98849.41;4937626;28;102460;-62
2022/07/02 01:37:28;;;;;;;;;2.00;2.00;;;;;27.27;49.68;98848.59;4936688;28;102221;-62
2022/07/02 01:39:55;;;;;;;;;1.33;1.33;;;;;27.27;49.63;98825.56;4924882;28;104152;-62
2022/07/02 01:42:22;;;;;;;;;1.33;1.33;;;;;27.26;49.62;98830.28;4921875;28;102304;-62
2022/07/02 01:44:51;;;;;;;;;1.00;1.00;;;;;27.27;49.59;98825.56;4897881;28;102444;-62
2022/07/02 01:47:18;;;;;;;;;2.00;2.00;;;;;27.26;49.33;98838.59;4924912;28;102287;-62
2022/07/02 01:49:46;;;;;;;;;1.33;1.00;;;;;27.25;49.44;98836.94;4906076;28;104135;-62
2022/07/02 01:52:14;;;;;;;;;2.00;2.00;;;;;27.24;49.57;98840.06;4942053;28;102194;-62
2022/07/02 01:54:42;;;;;;;;;2.00;2.00;;;;;27.24;49.44;98835.34;4915333;28;102522;-62
2022/07/02 01:57:10;;;;;;;;;2.00;2.00;;;;;27.25;49.58;98827.78;4910200;28;105254;-62
2022/07/02 01:59:37;;;;;;;;;1.00;1.00;;;;;27.24;49.80;98840.88;4937977;28;104283;-62
2022/07/02 02:02:04;;;;;;;;;2.00;2.00;;;;;27.24;49.67;98851.16;4933557;28;102276;-62
2022/07/02 02:04:32;;;;;;;;;0.00;0.00;;;;;27.25;49.67;98836.94;4920307;28;102831;-62
2022/07/02 02:06:59;;;;;;;;;3.33;3.00;;;;;27.24;49.59;98856.72;4936967;28;102469;-62
2022/07/02 02:09:27;;;;;;;;;2.00;2.00;;;;;27.23;49.65;98843.94;4927377;28;104107;-62
2022/07/02 02:11:54;;;;;;;;;0.75;0.75;;;;;27.23;49.41;98861.44;4940082;28;102556;-62
2022/07/02 02:14:21;;;;;;;;;2.00;1.00;;;;;27.23;49.50;98864.22;4936579;28;102095;-62
2022/07/02 02:16:48;;;;;;;;;1.00;1.00;;;;;27.22;49.74;98864.50;4938001;28;102039;-62
2022/07/02 02:19:15;;;;;;;;;1.00;1.00;;;;;27.22;49.34;98862.56;4938638;28;105327;-62
2022/07/02 02:21:42;;;;;;;;;2.00;2.00;;;;;27.22;49.55;98870.88;4938602;28;102311;-62
2022/07/02 02:24:09;;;;;;;;;1.33;1.33;;;;;27.22;49.70;98878.38;4939422;28;102843;-62
2022/07/02 02:26:37;;;;;;;;;2.33;1.67;;;;;27.21;49.46;98876.72;4935519;28;102521;-62
2022/07/02 02:29:04;;;;;;;;;1.67;1.67;;;;;27.20;49.44;98880.66;4920535;28;104100;-62
2022/07/02 02:31:31;;;;;;;;;1.00;1.00;;;;;27.21;49.74;98894.22;4935436;28;102407;-61
2022/07/02 02:33:58;;;;;;;;;2.00;2.00;;;;;27.20;49.59;98884.25;4927845;28;102640;-62
2022/07/02 02:36:25;;;;;;;;;4.00;2.00;;;;;27.20;49.38;98894.53;4935462;28;102150;-62
2022/07/02 02:38:52;;;;;;;;;2.00;1.00;;;;;27.20;49.49;98891.78;4935817;28;104163;-62
2022/07/02 02:41:19;;;;;;;;;2.00;2.00;;;;;27.19;49.60;98901.22;4933671;28;102334;-62
2022/07/02 02:43:47;;;;;;;;;2.00;1.67;;;;;27.20;49.48;98889.78;4935035;28;111645;-62
2022/07/02 02:46:14;;;;;;;;;1.00;1.00;;;;;27.19;49.46;98893.72;4939996;28;102375;-62
2022/07/02 02:48:41;;;;;;;;;1.00;1.00;;;;;27.18;49.40;98889.28;4938241;28;104063;-62
2022/07/02 02:51:09;;;;;;;;;1.00;1.00;;;;;27.18;49.59;98886.50;4937115;28;102294;-62
2022/07/02 02:53:37;;;;;;;;;1.67;1.67;;;;;27.18;49.42;98885.69;4932141;28;111167;-62
2022/07/02 02:56:04;;;;;;;;;2.00;2.00;;;;;27.17;49.59;98895.13;4939809;28;102564;-62
2022/07/02 02:58:31;;;;;;;;;2.00;2.00;;;;;27.15;49.58;98903.78;4933721;28;104126;-62
2022/07/02 03:00:58;;;;;;;;;2.33;2.00;;;;;27.15;49.77;98903.78;4931189;28;102290;-62
2022/07/02 03:03:26;;;;;;;;;2.00;2.00;;;;;27.16;49.42;98905.41;4940996;28;102477;-62
2022/07/02 03:05:53;;;;;;;;;2.33;2.33;;;;;27.14;49.36;98904.91;4933398;28;102230;-62
2022/07/02 03:08:20;;;;;;;;;1.00;1.00;;;;;27.15;49.60;98912.13;4932525;28;104084;-62
2022/07/02 03:10:48;;;;;;;;;1.67;1.67;;;;;27.16;49.27;98913.75;4974172;28;102167;-62
2022/07/02 03:13:15;;;;;;;;;1.00;0.67;;;;;27.13;49.34;98922.69;4934416;28;102198;-62
2022/07/02 03:15:42;;;;;;;;;1.00;1.00;;;;;27.13;49.47;98925.47;4940211;28;110198;-62
2022/07/02 03:18:09;;;;;;;;;1.00;1.00;;;;;27.14;49.17;98932.66;4941925;28;109012;-62
2022/07/02 03:20:36;;;;;;;;;1.67;1.67;;;;;27.13;49.34;98942.13;4929008;28;102137;-61
2022/07/02 03:23:03;;;;;;;;;2.00;2.00;;;;;27.13;49.32;98942.13;4938421;28;102279;-62
2022/07/02 03:25:30;;;;;;;;;2.00;2.00;;;;;27.12;49.61;98929.34;4929135;28;102552;-62
2022/07/02 03:27:58;;;;;;;;;1.00;1.00;;;;;27.11;49.61;98933.25;4923002;28;104231;-62
2022/07/02 03:30:25;;;;;;;;;1.33;1.33;;;;;27.13;49.26;98935.72;4925232;28;104157;-62
2022/07/02 03:32:52;;;;;;;;;2.00;1.00;;;;;27.12;49.54;98945.19;4924093;28;102201;-62
2022/07/02 03:35:19;;;;;;;;;2.00;2.00;;;;;27.13;49.48;98946.84;4936875;28;102564;-61
2022/07/02 03:37:46;;;;;;;;;1.00;1.00;;;;;27.11;49.31;98949.91;4915206;28;104069;-62
2022/07/02 03:40:13;;;;;;;;;2.00;2.00;;;;;27.12;49.54;98954.34;4929206;28;102080;-62
2022/07/02 03:42:41;;;;;;;;;2.00;1.00;;;;;27.12;49.57;98967.38;4931619;28;104111;-62
2022/07/02 03:45:08;;;;;;;;;2.00;2.00;;;;;27.12;49.60;98957.13;4913430;28;102215;-62
2022/07/02 03:47:35;;;;;;;;;1.00;1.00;;;;;27.11;49.51;98954.66;4927525;28;104067;-62
2022/07/02 03:50:02;;;;;;;;;1.67;1.00;;;;;27.11;49.25;98954.66;4933403;28;102271;-62
2022/07/02 03:52:29;;;;;;;;;3.00;3.00;;;;;27.10;49.19;98953.00;4937414;28;102033;-62
2022/07/02 03:54:56;;;;;;;;;1.00;1.00;;;;;27.09;49.44;98963.28;4915144;28;103065;-62
2022/07/02 03:57:23;;;;;;;;;1.00;1.00;;;;;27.10;49.58;98962.16;4923992;28;104233;-62
2022/07/02 03:59:51;;;;;;;;;1.67;1.00;;;;;27.08;49.29;98964.41;4933083;28;102379;-62
2022/07/02 04:02:18;;;;;;;;;2.00;2.00;;;;;27.08;49.56;98956.06;4923994;28;102439;-62
2022/07/02 04:04:45;;;;;;;;;1.33;1.33;;;;;27.07;49.42;98959.97;4934766;28;102184;-62
2022/07/02 04:07:12;;;;;;;;;2.00;2.00;;;;;27.08;49.25;98962.44;4924429;28;104325;-62
2022/07/02 04:09:39;;;;;;;;;1.33;1.33;;;;;27.10;49.44;98966.88;4930676;28;102279;-62
2022/07/02 04:12:07;;;;;;;;;3.00;2.00;;;;;27.08;49.41;98956.91;4930643;28;104209;-62
2022/07/02 04:14:34;;;;;;;;;1.00;1.00;;;;;27.08;49.28;98959.66;4931447;28;102282;-62
2022/07/02 04:17:01;;;;;;;;;2.33;2.00;;;;;27.10;49.42;98961.34;4939177;28;104088;-62
2022/07/02 04:19:28;;;;;;;;;1.33;1.33;;;;;27.08;49.16;98956.06;4933487;28;102402;-61
2022/07/02 04:21:56;;;;;;;;;2.33;2.33;;;;;27.07;49.26;98971.91;4934491;28;102680;-61
2022/07/02 04:24:23;;;;;;;;;2.33;1.33;;;;;27.07;49.35;98965.50;4930286;28;102380;-62
2022/07/02 04:26:50;;;;;;;;;2.00;2.00;;;;;27.06;49.46;98975.00;4938001;28;104102;-62
2022/07/02 04:29:17;;;;;;;;;2.00;2.00;;;;;27.06;49.38;98963.88;4923538;28;102167;-62
2022/07/02 04:31:44;;;;;;;;;2.00;2.00;;;;;27.04;49.74;98972.50;4926795;28;102350;-61
2022/07/02 04:34:14;;;;;;;;;3.00;3.00;;;;;27.06;49.26;98972.22;4933428;28;102132;-62
2022/07/02 04:36:41;;;;;;;;;1.00;1.00;;;;;27.06;49.21;98973.00;4928107;28;104202;-61
2022/07/02 04:39:08;;;;;;;;;2.67;2.67;;;;;27.07;49.41;98979.41;4922944;28;102495;-62
2022/07/02 04:41:35;;;;;;;;;1.00;1.00;;;;;27.05;49.29;98976.09;4926610;28;102420;-62
2022/07/02 04:44:04;;;;;;;;;1.00;1.00;;;;;27.06;49.23;98983.31;4929914;28;102157;-62
2022/07/02 04:46:31;;;;;;;;;2.00;2.00;;;;;27.06;49.45;98988.88;4919957;28;103545;-62
2022/07/02 04:48:58;;;;;;;;;0.67;0.67;;;;;27.05;49.55;98988.03;4927812;28;102145;-62
2022/07/02 04:51:26;;;;;;;;;1.00;1.00;;;;;27.05;49.28;99001.09;4933262;28;102378;-61
2022/07/02 04:53:56;;;;;;;;;1.00;1.00;;;;;27.04;49.23;98996.66;4924492;28;103227;-62
2022/07/02 04:56:24;;;;;;;;;2.33;2.33;;;;;27.05;49.53;98998.31;4939214;28;104054;-62
2022/07/02 04:58:51;;;;;;;;;1.00;1.00;;;;;27.04;49.53;98994.72;4942464;28;102517;-62
2022/07/02 05:01:19;;;;;;;;;2.00;2.00;;;;;27.02;49.40;98996.94;4929631;28;102219;-62
2022/07/02 05:03:46;;;;;;;;;2.00;2.00;;;;;27.02;49.36;98996.13;4932488;28;102375;-61
2022/07/02 05:06:13;;;;;;;;;1.00;1.00;;;;;27.02;49.32;98996.13;4936066;28;104244;-62
2022/07/02 05:08:40;;;;;;;;;3.00;3.00;;;;;27.02;49.23;98996.13;4924967;28;102125;-62
2022/07/02 05:11:07;;;;;;;;;1.00;1.00;;;;;27.02;49.17;98990.56;4915848;28;102094;-62
2022/07/02 05:13:34;;;;;;;;;2.33;2.33;;;;;27.01;49.38;98991.72;4927233;28;102282;-61
2022/07/02 05:16:01;;;;;;;;;1.00;1.00;;;;;27.03;49.26;99003.31;4925702;28;103934;-61
2022/07/02 05:18:28;;;;;;;;;1.00;0.33;;;;;27.02;49.53;99005.28;4932938;28;103829;-61
2022/07/02 05:20:55;;;;;;;;;1.33;1.33;;;;;27.01;49.24;99003.66;4929174;28;102145;-62
2022/07/02 05:23:22;;;;;;;;;0.67;0.67;;;;;27.02;49.38;99007.22;4943670;28;102678;-61
2022/07/02 05:25:50;;;;;;;;;1.33;1.33;;;;;27.01;49.08;99017.53;4936058;28;104267;-61
2022/07/02 05:28:17;;;;;;;;;1.00;1.00;;;;;27.01;49.45;99022.25;4928737;28;102238;-62
2022/07/02 05:30:44;;;;;;;;;2.00;2.00;;;;;26.99;49.10;99030.88;4939978;28;102308;-61
2022/07/02 05:33:11;;;;;;;;;2.00;2.00;;;;;27.00;49.12;99020.59;4932386;28;102219;-61
2022/07/02 05:35:38;;;;;;;;;1.00;1.00;;;;;27.00;49.26;99026.97;4933288;28;104088;-61
2022/07/02 05:38:05;;;;;;;;;0.25;0.25;;;;;27.00;49.32;99034.47;4929640;28;102524;-61
2022/07/02 05:40:32;;;;;;;;;2.67;2.00;;;;;27.00;49.32;99051.13;4936164;28;102230;-62
2022/07/02 05:42:59;;;;;;;;;1.67;1.00;;;;;27.00;49.34;99053.91;4933985;28;102233;-61
2022/07/02 05:45:26;;;;;;;;;1.00;1.00;;;;;26.99;49.54;99053.06;4933632;28;104247;-62
2022/07/02 05:47:53;;;;;;;;;1.00;1.00;;;;;26.99;49.56;99049.47;4933359;28;102431;-61
2022/07/02 05:50:21;;;;;;;;;1.33;1.33;;;;;27.00;49.37;99059.44;4936820;28;102246;-62
2022/07/02 05:52:48;;;;;;;;;2.00;1.33;;;;;26.98;49.27;99068.06;4934594;28;102572;-61
2022/07/02 05:55:15;;;;;;;;;1.67;1.67;;;;;26.98;49.51;99075.56;4934199;28;104139;-62
2022/07/02 05:57:42;;;;;;;;;2.00;2.00;;;;;26.99;49.15;99080.00;4937168;28;102285;-62
2022/07/02 06:00:13;;;;;;;;;1.33;0.67;;;;;26.97;49.40;99077.50;4933016;28;102366;-62
2022/07/02 06:02:40;;;;;;;;;1.33;1.33;;;;;26.98;49.28;99075.56;4920863;28;102579;-62
2022/07/02 06:07:53;;;;;;;;;1.33;1.33;;;;;26.95;49.60;99084.50;4925871;28;102018;-61
2022/07/02 06:10:20;;;;;;;;;1.00;1.00;;;;;26.95;49.29;99084.50;4923640;28;103336;-62
2022/07/02 06:12:49;;;;;;;;;2.00;2.00;;;;;26.94;49.29;99085.59;4936300;28;102321;-62
2022/07/02 06:15:16;;;;;;;;;2.00;2.00;;;;;26.96;49.15;99086.16;4935960;28;104070;-61
2022/07/02 06:17:44;;;;;;;;;1.33;1.33;;;;;26.96;49.35;99091.69;4935760;28;102173;-62
2022/07/02 06:20:11;;;;;;;;;1.00;1.00;;;;;26.95;49.46;99084.50;4937574;28;102081;-62
2022/07/02 06:22:39;;;;;;;;;1.67;1.67;;;;;26.95;49.18;99081.72;4933905;28;102557;-61
2022/07/02 06:25:07;;;;;;;;;2.00;2.00;;;;;26.95;49.27;99090.03;4915165;28;104380;-61
2022/07/02 06:27:34;;;;;;;;;2.00;1.00;;;;;26.95;49.17;99092.81;4918169;28;102410;-61
2022/07/02 06:30:05;;;;;;;;;0.33;0.33;;;;;26.96;49.57;99094.47;4917046;28;102367;-61
2022/07/02 06:32:32;;;;;;;;;1.67;1.67;;;;;26.94;49.38;99100.31;4920834;28;103847;-61
2022/07/02 06:34:59;;;;;;;;;2.00;2.00;;;;;26.92;49.29;99110.06;4942310;28;104052;-62
2022/07/02 06:37:26;;;;;;;;;1.33;1.33;;;;;26.93;49.35;99114.47;4925760;28;102199;-61
2022/07/02 06:39:53;;;;;;;;;0.67;0.67;;;;;26.92;49.07;99108.13;4938080;28;102165;-61
2022/07/02 06:42:22;;;;;;;;;2.00;2.00;;;;;26.92;49.44;99113.69;4938389;28;102524;-61
2022/07/02 06:44:50;;;;;;;;;1.33;1.33;;;;;26.92;49.22;99129.50;4924556;28;104134;-62
2022/07/02 06:47:24;;;;;;;;;0.00;0.00;;;;;26.94;49.22;99128.06;4932582;28;102280;-62
2022/07/02 06:49:53;;;;;;;;;2.00;2.00;;;;;26.92;49.13;99141.44;4929270;28;103114;-62
2022/07/02 06:52:21;;;;;;;;;1.00;1.00;;;;;26.93;49.27;99142.22;4935997;28;104675;-62
2022/07/02 06:54:48;;;;;;;;;1.67;1.67;;;;;26.93;49.36;99158.88;4939268;28;104089;-61
2022/07/02 06:57:15;;;;;;;;;1.33;1.33;;;;;26.94;49.24;99157.78;4936330;28;102442;-61
2022/07/02 06:59:50;;;;;;;;;1.67;1.67;;;;;26.92;49.33;99160.03;4934727;28;102361;-61
2022/07/02 07:02:17;;;;;;;;;1.67;1.67;;;;;26.91;49.39;99163.94;4937662;28;102204;-62
2022/07/02 07:04:45;;;;;;;;;1.00;1.00;;;;;26.90;49.41;99167.81;4929507;28;104228;-61
2022/07/02 07:07:12;;;;;;;;;1.67;1.00;;;;;26.90;49.27;99170.59;4926522;28;108961;-62
2022/07/02 07:09:39;;;;;;;;;2.00;1.67;;;;;26.90;49.31;99176.13;4936143;28;102321;-62
2022/07/02 07:12:06;;;;;;;;;0.67;0.67;;;;;26.89;49.35;99180.84;4932035;28;102167;-61
2022/07/02 07:14:34;;;;;;;;;1.00;1.00;;;;;26.90;49.33;99178.91;4927676;28;103605;-62
2022/07/02 07:17:01;;;;;;;;;2.00;1.33;;;;;26.88;49.27;99184.75;4940467;28;102050;-62
2022/07/02 07:19:29;;;;;;;;;1.00;1.00;;;;;26.89;49.27;99191.97;4929085;28;105171;-61
2022/07/02 07:21:56;;;;;;;;;2.67;0.67;;;;;26.90;49.31;99185.28;4933873;28;102535;-62
2022/07/02 07:24:23;;;;;;;;;2.00;2.00;;;;;26.89;49.51;99183.63;4934750;28;104202;-61
2022/07/02 07:26:50;;;;;;;;;2.00;2.00;;;;;26.90;49.40;99187.25;4929014;28;102595;-61
2022/07/02 07:29:17;;;;;;;;;1.33;1.33;;;;;26.89;49.42;99185.56;4942493;28;102137;-61
2022/07/02 07:31:44;;;;;;;;;1.00;1.00;;;;;26.89;49.30;99185.56;4928743;28;102875;-62
2022/07/02 07:34:11;;;;;;;;;1.67;1.67;;;;;26.87;49.36;99190.63;4927702;28;104275;-62
2022/07/02 07:36:38;;;;;;;;;1.00;1.00;;;;;26.87;49.29;99187.84;4928600;28;102443;-62
2022/07/02 07:39:06;;;;;;;;;1.00;1.00;;;;;26.86;49.42;99197.28;4928930;28;102356;-61
2022/07/02 07:41:33;;;;;;;;;1.00;1.00;;;;;26.86;49.25;99191.72;4945249;28;102930;-61
2022/07/02 07:44:01;;;;;;;;;0.00;0.00;;;;;26.85;49.34;99190.91;4935403;28;109357;-62
2022/07/02 07:46:28;;;;;;;;;2.00;2.00;;;;;26.86;49.21;99191.72;4926823;28;102296;-61
2022/07/02 07:48:56;;;;;;;;;1.00;0.33;;;;;26.85;49.38;99195.59;4925900;28;102261;-62
2022/07/02 07:51:23;;;;;;;;;2.33;2.00;;;;;26.87;49.04;99197.00;4939442;28;102574;-62
2022/07/02 07:53:50;;;;;;;;;2.00;2.00;;;;;26.87;49.35;99199.78;4929126;28;105631;-62
2022/07/02 07:56:18;;;;;;;;;1.00;1.00;;;;;26.85;49.41;99202.00;4929645;28;102510;-62
2022/07/02 07:58:45;;;;;;;;;0.67;0.67;;;;;26.85;49.25;99192.81;4928382;28;102930;-62
2022/07/02 08:01:13;;;;;;;;;2.00;2.00;;;;;26.85;49.38;99196.44;4935104;28;102606;-62
2022/07/02 08:03:40;;;;;;;;;2.00;2.00;;;;;26.84;49.26;99203.06;4927170;28;104063;-62
2022/07/02 08:06:07;;;;;;;;;1.33;1.00;;;;;26.83;49.62;99203.38;4936199;28;102187;-61
2022/07/02 08:08:34;;;;;;;;;0.33;0.00;;;;;26.83;49.28;99203.38;4933711;28;102178;-62
2022/07/02 08:11:01;;;;;;;;;0.67;0.67;;;;;26.82;49.57;99204.50;4946240;28;102461;-61
2022/07/02 08:13:29;;;;;;;;;1.00;1.00;;;;;26.82;49.57;99207.28;4933412;28;104120;-61
2022/07/02 08:15:56;;;;;;;;;2.00;1.67;;;;;26.82;49.45;99204.50;4930021;28;102041;-62
2022/07/02 08:18:23;;;;;;;;;2.00;2.00;;;;;26.81;49.48;99200.91;4938564;28;102492;-61
2022/07/02 08:20:50;;;;;;;;;1.00;1.00;;;;;26.83;49.37;99208.94;4926828;28;102343;-61
2022/07/02 08:23:17;;;;;;;;;2.00;2.00;;;;;26.82;49.38;99218.38;4939125;28;104526;-61
2022/07/02 08:25:44;;;;;;;;;0.33;0.33;;;;;26.82;49.14;99221.16;4926113;28;102377;-61
2022/07/02 08:28:11;;;;;;;;;1.00;1.00;;;;;26.82;49.39;99223.94;4934105;28;102409;-62
2022/07/02 08:30:38;;;;;;;;;2.00;1.67;;;;;26.80;49.44;99215.88;4940843;28;102669;-61
2022/07/02 08:33:06;;;;;;;;;2.00;1.33;;;;;26.82;49.59;99218.38;4936507;28;104356;-61
2022/07/02 08:35:33;;;;;;;;;0.33;0.33;;;;;26.81;49.21;99217.56;4940598;28;102409;-61
2022/07/02 08:38:00;;;;;;;;;1.00;1.00;;;;;26.81;49.30;99216.72;4930998;28;102271;-61
2022/07/02 08:40:27;;;;;;;;;1.00;1.00;;;;;26.81;49.37;99211.16;4931197;28;102213;-61
2022/07/02 08:42:54;;;;;;;;;2.00;1.33;;;;;26.79;49.39;99221.75;4908460;28;104458;-61
2022/07/02 08:45:22;;;;;;;;;1.00;1.00;;;;;26.81;49.39;99222.25;4927740;28;102304;-62
2022/07/02 08:47:51;;;;;;;;;1.00;1.00;;;;;26.81;49.14;99217.56;4931434;28;102051;-61
2022/07/02 08:50:18;;;;;;;;;1.00;1.00;;;;;26.80;49.40;99221.44;4929223;28;102941;-61
2022/07/02 08:52:45;;;;;;;;;2.00;2.00;;;;;26.80;49.41;99237.25;4919710;28;104113;-62
2022/07/02 08:55:14;;;;;;;;;2.00;2.00;;;;;26.80;49.32;99235.31;4910595;28;102304;-61
2022/07/02 08:57:41;;;;;;;;;1.67;1.67;;;;;26.80;49.39;99231.69;4940872;28;102147;-62
2022/07/02 09:00:08;;;;;;;;;0.00;0.00;;;;;26.81;49.50;99233.38;4940137;28;102166;-62
2022/07/02 09:02:35;;;;;;;;;1.33;1.33;;;;;26.81;49.52;99238.91;4928713;28;109129;-62
2022/07/02 09:05:03;;;;;;;;;1.67;1.67;;;;;26.82;49.34;99248.91;4965119;28;102229;-62
2022/07/02 09:07:30;;;;;;;;;1.33;1.00;;;;;26.81;49.45;99241.69;4914180;28;102150;-62
2022/07/02 09:09:58;;;;;;;;;2.00;2.00;;;;;26.81;49.44;99244.47;4934521;28;103172;-62
2022/07/02 09:12:25;;;;;;;;;1.67;1.67;;;;;26.82;49.32;99248.91;4931385;28;104080;-62
2022/07/02 09:14:53;;;;;;;;;1.00;1.00;;;;;26.80;49.47;99242.81;4917746;28;102217;-61
2022/07/02 09:17:20;;;;;;;;;1.00;1.00;;;;;26.81;49.20;99250.03;4942547;28;103037;-62
2022/07/02 09:19:47;;;;;;;;;2.00;2.00;;;;;26.81;49.31;99255.56;4929278;28;102280;-62
2022/07/02 09:22:15;;;;;;;;;2.00;2.00;;;;;26.82;49.37;99246.13;4922455;28;103967;-62
2022/07/02 09:24:42;;;;;;;;;1.67;1.67;;;;;26.81;49.29;99244.47;4932846;28;102501;-61
2022/07/02 09:27:12;;;;;;;;;1.00;1.00;;;;;26.80;49.32;99253.91;4935575;28;102213;-62
2022/07/02 09:29:55;;;;;;;;;2.00;1.33;;;;;26.80;49.23;99256.69;4946966;28;102243;-62
2022/07/02 09:32:22;;;;;;;;;1.67;1.67;;;;;26.82;49.31;99255.28;4937695;28;108691;-61
2022/07/02 09:34:50;;;;;;;;;2.00;2.00;;;;;26.83;49.31;99254.19;4933025;28;102210;-61
2022/07/02 09:37:21;;;;;;;;;1.00;1.00;;;;;26.83;49.16;99253.34;4935395;28;102441;-62
2022/07/02 09:39:49;;;;;;;;;1.00;1.00;;;;;26.83;49.20;99245.84;4935277;28;102592;-62
2022/07/02 09:42:28;;;;;;;;;2.33;1.67;;;;;26.83;49.19;99247.78;4926220;28;104987;-62
2022/07/02 09:44:55;;;;;;;;;1.00;1.00;;;;;26.82;49.34;99254.47;4916361;28;102136;-62
2022/07/02 09:47:36;;;;;;;;;2.00;2.00;;;;;26.82;49.13;99251.69;4914322;28;102344;-61
2022/07/02 09:50:08;;;;;;;;;0.33;0.33;;;;;26.82;49.25;99254.47;4925468;28;102168;-62
2022/07/02 09:52:36;;;;;;;;;1.00;0.67;;;;;26.82;49.32;99254.47;4932246;28;104312;-61
2022/07/02 09:55:04;;;;;;;;;1.00;1.00;;;;;26.82;49.15;99246.97;4933536;28;102518;-61
2022/07/02 09:57:48;;;;;;;;;1.33;1.33;;;;;26.83;49.28;99253.34;4933869;28;102960;-61
2022/07/02 10:00:15;;;;;;;;;0.00;0.00;;;;;26.83;49.16;99254.19;4928931;28;102463;-62
2022/07/02 10:02:42;;;;;;;;;2.00;2.00;;;;;26.83;49.16;99253.34;4936586;28;104063;-61
2022/07/02 10:05:10;;;;;;;;;1.00;1.00;;;;;26.83;49.11;99264.44;4924601;28;102153;-61
2022/07/02 10:07:37;;;;;;;;;1.00;1.00;;;;;26.83;49.37;99248.63;4938930;28;102260;-62
2022/07/02 10:10:04;;;;;;;;;1.00;1.00;;;;;26.83;49.11;99262.50;4933180;28;102529;-61
2022/07/02 10:12:31;;;;;;;;;2.00;2.00;;;;;26.83;49.15;99265.28;4944855;28;104538;-61
2022/07/02 10:14:58;;;;;;;;;1.00;1.00;;;;;26.83;49.25;99267.22;4938076;28;102037;-61
2022/07/02 10:17:26;;;;;;;;;1.33;1.33;;;;;26.84;49.34;99269.69;4963380;28;102235;-62
2022/07/02 10:19:53;;;;;;;;;0.33;0.33;;;;;26.83;49.14;99276.38;4958817;28;110112;-62
2022/07/02 10:22:21;;;;;;;;;1.00;1.00;;;;;26.83;49.06;99270.81;4931707;28;104129;-61
2022/07/02 10:24:48;;;;;;;;;2.00;1.00;;;;;26.82;49.48;99266.38;4933545;28;102405;-61
2022/07/02 10:27:15;;;;;;;;;2.00;2.00;;;;;26.82;49.24;99262.78;4942409;28;102148;-61
2022/07/02 10:29:42;;;;;;;;;0.67;0.67;;;;;26.81;49.09;99266.66;4970924;28;102322;-61
2022/07/02 10:32:30;;;;;;;;;0.00;0.00;;;;;26.81;49.26;99270.28;4933929;28;108990;-62
2022/07/02 10:35:15;;;;;;;;;0.00;0.00;;;;;26.82;49.13;99265.56;4933431;28;102225;-61
2022/07/02 10:37:43;;;;;;;;;2.67;2.67;;;;;26.82;49.10;99279.44;4922788;28;103972;-61
2022/07/02 10:40:15;;;;;;;;;2.00;2.00;;;;;26.81;49.23;99270.28;4933523;28;102449;-61
2022/07/02 10:42:48;;;;;;;;;1.33;1.33;;;;;26.83;49.03;99270.00;4940661;28;108929;-61
2022/07/02 10:45:19;;;;;;;;;0.67;0.67;;;;;26.80;49.38;99276.94;4927255;28;104134;-62
2022/07/02 10:48:05;;;;;;;;;1.67;1.67;;;;;26.81;49.18;99267.50;4928523;28;102137;-62
2022/07/02 10:50:35;;;;;;;;;2.00;2.00;;;;;26.83;49.08;99265.28;4931049;28;102177;-61
2022/07/02 10:53:17;;;;;;;;;1.00;1.00;;;;;26.81;49.05;99266.66;4936968;28;104064;-61
2022/07/02 10:55:45;;;;;;;;;1.00;1.00;;;;;26.82;48.96;99268.34;4933543;28;102502;-62
2022/07/02 10:58:41;;;;;;;;;1.00;0.00;;;;;26.80;49.13;99274.16;4929945;28;102637;-61
2022/07/02 11:01:16;;;;;;;;;0.33;0.33;;;;;26.79;49.07;99271.69;4916104;28;102563;-61
2022/07/02 11:03:55;;;;;;;;;1.67;1.67;;;;;26.79;49.01;99274.47;4938547;28;109073;-61
2022/07/02 11:06:29;;;;;;;;;1.00;1.00;;;;;26.79;49.05;99268.91;4936298;28;102258;-61
2022/07/02 11:09:00;;;;;;;;;1.00;1.00;;;;;26.80;49.09;99267.78;4938280;28;102239;-62
2022/07/02 11:11:27;;;;;;;;;3.00;2.00;;;;;26.80;49.22;99274.16;4936447;28;102167;-61
2022/07/02 11:14:11;;;;;;;;;1.67;1.67;;;;;26.79;49.06;99266.97;4933105;28;104327;-61
2022/07/02 11:16:44;;;;;;;;;1.67;1.67;;;;;26.79;49.18;99268.91;4937514;28;102161;-62
2022/07/02 11:19:22;;;;;;;;;2.00;2.00;;;;;26.80;49.10;99273.34;4965605;28;104894;-62
2022/07/02 11:21:50;;;;;;;;;1.00;1.00;;;;;26.79;49.15;99271.69;4939679;28;102307;-62
2022/07/02 11:24:26;;;;;;;;;1.67;1.00;;;;;26.81;48.95;99277.78;4918933;28;104103;-62
2022/07/02 11:26:53;;;;;;;;;1.00;1.00;;;;;26.81;49.10;99277.78;4911460;28;102182;-61
2022/07/02 11:29:21;;;;;;;;;0.00;0.00;;;;;26.79;49.25;99274.47;4923040;28;102656;-61
2022/07/02 11:31:49;;;;;;;;;2.00;2.00;;;;;26.78;49.10;99279.19;4921249;28;103053;-62
2022/07/02 11:34:20;;;;;;;;;0.33;0.33;;;;;26.77;49.05;99277.53;4917686;28;104360;-62